Авиационная погода в Пскове

Регион: 
Погода METAR: 
ULOO 281200Z 10003MPS 060V140 9000 FEW024 SCT040 12/06 Q1032 R01/090060 NOSIG RMK QFE769
Время наблюдения
2021-09-28T12:00:00Z
Температура C
12.0
Точка росы
6.0
Направление ветра
100
Скорость ветра (узлы)
6
Метео видимость
5.59
Явления погоды
Условия полета
VFR